Ana Sayfa
METAR-TAF:

METAR-TAF

Havaalanları :

Michael J. Smith Field

Beaufort, Kuzey Carolina, Amerika Birleşik Devletleri

Enlem: 34-44-01N, Boylam: 076-39-38W, yükseklik: 3 m

Güncel hava durumu gözlemi

Rapor saat 09:58 UTC de 1 saat ve 3 dakika önce yapıldı.
Rüzgar kuzey/kuzeydoğudan 14 kt ve 26 kt'a kadar ani rüzgarlar
Sıcaklık 2°C
Nem 75%
Basınç 1025 hPa
Görüş mesafesi: 16.1 km
Açık gökyüzü

METAR: KMRH 220958Z AUTO 02014G26KT 10SM CLR 02/M02 A3028 RMK AO2 PK WND 02026/0952 SLP252 T00171017

Saat: 06:01 (11:01 UTC)


TAF: eksik

4.000'den fazla havaalanı için hava durumu gözlemleri ve tahminleri (METAR ve TAF raporları).

Kullanılabilir istasyonlar harita üzerinde sarı ve kırmızı noktalarla gösterilir.

İstasyonun adını görmek için fareyi noktanın üzerinde gezdirin.

Sonrasında hava gözlem ve tahminlerini görmek için tıklayın.

Haritayı değiştirmek için: yaklaştırmak için siyah artı işaretli yeşil düğmeye ve uzaklaştırmak için de eksi işaretli düğmeye hızla tıklayın; bitişik haritalar için yeşil okları kullanın.


METAR-TAF: